createdAt,value
2023-02-22T00:02:29.234Z,44560.81
2023-02-22T00:07:33.974Z,44546.84
2023-02-22T00:12:39.805Z,44546.84
2023-02-22T00:17:44.246Z,44550.84
2023-02-22T00:22:49.625Z,44534.88
2023-02-22T00:27:56.713Z,44570.81
2023-02-22T00:33:01.714Z,44534.88
2023-02-22T00:38:06.486Z,44508.94
2023-02-22T00:43:13.741Z,44516.91
2023-02-22T00:48:18.582Z,44520.91
2023-02-22T00:53:24.049Z,44480.97
2023-02-22T00:58:30.152Z,44480.97
2023-02-22T01:03:35.543Z,44486.97
2023-02-22T01:08:39.982Z,44429.06
2023-02-22T01:13:46.563Z,44397.16
2023-02-22T01:18:51.073Z,44393.16
2023-02-22T01:23:55.948Z,44343.25
2023-02-22T01:29:01.821Z,44353.22
2023-02-22T01:34:06.058Z,44349.22
2023-02-22T01:39:10.809Z,44329.28
2023-02-22T01:44:29.050Z,44293.34
2023-02-22T01:49:40.756Z,44249.44
2023-02-22T01:54:48.973Z,44237.47
2023-02-22T01:59:59.873Z,44237.47
2023-02-22T02:05:08.474Z,44171.59
2023-02-22T02:10:15.734Z,44189.56
2023-02-22T02:15:29.077Z,44127.69
2023-02-22T02:20:43.860Z,44105.72
2023-02-22T02:26:21.712Z,44085.75
2023-02-22T02:32:16.930Z,44065.81
2023-02-22T02:37:31.498Z,44013.91
2023-02-22T02:42:41.079Z,43997.94
2023-02-22T02:47:51.790Z,43968.00
2023-02-22T02:53:02.711Z,43932.06
2023-02-22T02:58:08.742Z,43975.97
2023-02-22T03:03:34.612Z,43940.06
2023-02-22T03:08:45.319Z,43954.03
2023-02-22T03:13:57.076Z,43958.03
2023-02-22T03:19:12.544Z,43956.03
2023-02-22T03:24:23.740Z,43938.06
2023-02-22T03:29:35.691Z,43912.13
2023-02-22T03:34:46.304Z,43906.13
2023-02-22T03:39:56.289Z,43910.13
2023-02-22T03:45:02.934Z,43838.25
2023-02-22T03:50:12.914Z,43790.38
2023-02-22T03:55:19.057Z,43774.41
2023-02-22T04:00:26.261Z,43710.53
2023-02-22T04:05:30.515Z,43652.66
2023-02-22T04:10:38.238Z,43570.84
2023-02-22T04:15:42.674Z,43506.97
2023-02-22T04:20:48.425Z,43459.06
2023-02-22T04:26:07.077Z,43379.25
2023-02-22T04:31:11.912Z,43343.34
2023-02-22T04:36:16.662Z,43351.31
2023-02-22T04:41:25.475Z,43215.63
2023-02-22T04:46:31.669Z,43151.75
2023-02-22T04:51:37.120Z,43163.72
2023-02-22T04:56:48.714Z,43087.91
2023-02-22T05:01:53.741Z,43207.63
2023-02-22T05:06:58.327Z,43161.75
2023-02-22T05:12:03.932Z,43127.81
2023-02-22T05:17:08.112Z,43141.78
2023-02-22T05:22:12.599Z,43131.81
2023-02-22T05:27:18.242Z,43145.78
2023-02-22T05:32:22.652Z,43113.84
2023-02-22T05:37:27.684Z,43183.69
2023-02-22T05:42:33.376Z,43211.63
2023-02-22T05:47:37.546Z,43173.72
2023-02-22T05:52:42.359Z,43231.56
2023-02-22T05:57:48.820Z,43315.41
2023-02-22T06:02:58.131Z,43393.22
2023-02-22T06:08:03.068Z,43367.28
2023-02-22T06:13:08.932Z,43465.06
2023-02-22T06:18:13.114Z,43522.94
2023-02-22T06:23:17.424Z,43526.94
2023-02-22T06:28:24.124Z,43590.78
2023-02-22T06:33:28.477Z,43672.63
2023-02-22T06:38:33.452Z,43730.50
2023-02-22T06:43:39.206Z,43826.28
2023-02-22T06:48:44.696Z,43878.19
2023-02-22T06:53:48.951Z,43930.06
2023-02-22T06:58:55.510Z,43960.00
2023-02-22T07:04:00.096Z,43904.13
2023-02-22T07:09:05.241Z,43758.44
2023-02-22T07:14:11.501Z,43882.19
2023-02-22T07:19:15.992Z,43814.31
2023-02-22T07:24:20.409Z,43910.13
2023-02-22T07:29:26.251Z,43985.97
2023-02-22T07:34:31.015Z,43960.00
2023-02-22T07:39:35.691Z,44045.84
2023-02-22T07:44:42.290Z,44041.84
2023-02-22T07:49:46.772Z,44007.91
2023-02-22T07:54:51.313Z,44081.75
2023-02-22T07:59:56.889Z,44119.69
2023-02-22T08:05:01.459Z,44191.53
2023-02-22T08:10:07.963Z,44181.56
2023-02-22T08:15:19.695Z,44155.63
2023-02-22T08:20:24.108Z,44129.66
2023-02-22T08:25:30.451Z,44201.53
2023-02-22T08:30:40.059Z,44241.44
2023-02-22T08:35:45.064Z,44279.38
2023-02-22T08:40:50.718Z,44329.28
2023-02-22T08:45:57.841Z,44349.22
2023-02-22T08:51:02.390Z,44445.06
2023-02-22T08:56:07.349Z,44447.03
2023-02-22T09:01:19.251Z,44441.06
2023-02-22T09:06:26.285Z,44548.84
2023-02-22T09:11:30.498Z,44584.78
2023-02-22T09:16:38.301Z,44596.75
2023-02-22T09:21:42.831Z,44604.75
2023-02-22T09:26:53.618Z,44640.69
2023-02-22T09:31:59.490Z,44652.66
2023-02-22T09:37:05.217Z,44644.66
2023-02-22T09:42:14.923Z,44676.59
2023-02-22T09:47:21.036Z,44694.56
2023-02-22T09:52:29.460Z,44738.50
2023-02-22T09:57:40.376Z,44772.44
2023-02-22T10:02:53.937Z,44816.34
2023-02-22T10:08:06.182Z,44820.34
2023-02-22T10:13:22.695Z,44832.31
2023-02-22T10:18:48.121Z,44858.28
2023-02-22T10:24:02.523Z,44898.19
2023-02-22T10:29:18.215Z,44934.13
2023-02-22T10:34:27.352Z,44964.09
2023-02-22T10:39:33.827Z,44946.13
2023-02-22T10:44:39.954Z,45073.88
2023-02-22T10:49:50.763Z,45103.84
2023-02-22T10:55:13.581Z,45067.91
2023-02-22T11:00:26.511Z,45175.72
2023-02-22T11:05:37.485Z,45205.66
2023-02-22T11:10:43.606Z,45201.66
2023-02-22T11:15:48.252Z,45295.50
2023-02-22T11:21:02.151Z,45391.34
2023-02-22T11:26:10.125Z,45341.41
2023-02-22T11:31:18.685Z,45343.41
2023-02-22T11:36:41.113Z,45379.34
2023-02-22T11:41:46.649Z,45411.31
2023-02-22T11:46:51.055Z,45415.28
2023-02-22T11:52:26.141Z,45419.28
2023-02-22T11:57:52.822Z,45435.25
2023-02-22T12:03:13.848Z,45509.13
2023-02-22T12:08:31.585Z,45597.00
2023-02-22T12:13:51.443Z,45670.88
2023-02-22T12:19:12.866Z,45678.84
2023-02-22T12:24:24.675Z,45710.81
2023-02-22T12:29:37.797Z,45742.75
2023-02-22T12:34:47.965Z,45674.88
2023-02-22T12:40:01.246Z,45650.91
2023-02-22T12:45:17.059Z,45676.88
2023-02-22T12:50:24.505Z,45716.81
2023-02-22T12:55:35.046Z,45718.78
2023-02-22T13:00:46.387Z,45778.69
2023-02-22T13:05:58.525Z,45710.81
2023-02-22T13:11:16.606Z,45656.91
2023-02-22T13:16:33.939Z,45730.78
2023-02-22T13:21:49.578Z,45718.78
2023-02-22T13:27:00.404Z,45730.78
2023-02-22T13:32:30.738Z,45722.78
2023-02-22T13:38:03.195Z,45722.78
2023-02-22T13:43:28.516Z,45784.69
2023-02-22T13:48:54.238Z,45800.66
2023-02-22T13:54:04.766Z,45858.56
2023-02-22T13:59:25.350Z,45830.63
2023-02-22T14:04:40.607Z,45856.56
2023-02-22T14:09:49.463Z,45846.59
2023-02-22T14:15:29.295Z,45834.63
2023-02-22T14:20:36.918Z,45884.53
2023-02-22T14:25:43.860Z,45876.53
2023-02-22T14:30:49.853Z,45894.53
2023-02-22T14:35:54.593Z,45884.53
2023-02-22T14:41:03.658Z,45874.56
2023-02-22T14:46:13.641Z,45898.50
2023-02-22T14:51:25.131Z,45896.50
2023-02-22T14:56:39.669Z,45962.41
2023-02-22T15:01:58.688Z,45934.47
2023-02-22T15:07:21.707Z,45910.50
2023-02-22T15:12:30.365Z,45906.50
2023-02-22T15:17:36.262Z,45924.47
2023-02-22T15:22:40.697Z,45944.44
2023-02-22T15:27:48.075Z,45948.44
2023-02-22T15:33:04.057Z,45962.41
2023-02-22T15:38:20.467Z,45976.38
2023-02-22T15:43:28.656Z,46004.34
2023-02-22T15:48:37.423Z,45950.44
2023-02-22T15:53:44.582Z,45992.38
2023-02-22T15:58:49.770Z,45996.34
2023-02-22T16:03:58.780Z,46022.31
2023-02-22T16:09:10.018Z,46024.31
2023-02-22T16:14:29.417Z,46026.31
2023-02-22T16:19:42.718Z,46004.34
2023-02-22T16:24:52.539Z,45992.38
2023-02-22T16:30:23.314Z,45990.38
2023-02-22T16:35:30.528Z,46008.34
2023-02-22T16:40:36.966Z,45998.34
2023-02-22T16:45:42.564Z,46006.34
2023-02-22T16:50:51.297Z,45966.41
2023-02-22T16:56:00.729Z,45982.38
2023-02-22T17:01:05.336Z,45950.44
2023-02-22T17:06:11.772Z,45928.47
2023-02-22T17:11:16.366Z,45892.53
2023-02-22T17:16:21.305Z,45894.53
2023-02-22T17:21:27.625Z,45872.56
2023-02-22T17:26:32.099Z,45886.53
2023-02-22T17:31:36.857Z,45854.59
2023-02-22T17:36:42.858Z,45866.56
2023-02-22T17:41:48.191Z,45860.56
2023-02-22T17:46:53.164Z,45864.56
2023-02-22T17:51:58.805Z,45860.56
2023-02-22T17:57:03.166Z,45850.59
2023-02-22T18:02:07.842Z,45854.59
2023-02-22T18:07:14.523Z,45830.63
2023-02-22T18:12:18.657Z,45826.63
2023-02-22T18:17:23.026Z,45798.66
2023-02-22T18:22:28.999Z,45774.72
2023-02-22T18:27:33.117Z,45742.75
2023-02-22T18:32:37.315Z,45756.72
2023-02-22T18:37:44.652Z,45742.75
2023-02-22T18:42:49.000Z,45738.75
2023-02-22T18:47:53.371Z,45690.84
2023-02-22T18:52:59.121Z,45684.84
2023-02-22T18:58:04.855Z,45618.97
2023-02-22T19:03:10.422Z,45664.88
2023-02-22T19:08:16.372Z,45612.97
2023-02-22T19:13:21.480Z,45602.97
2023-02-22T19:18:25.677Z,45577.03
2023-02-22T19:23:34.490Z,45557.06
2023-02-22T19:28:40.342Z,45583.00
2023-02-22T19:33:45.018Z,45567.03
2023-02-22T19:38:50.842Z,45610.97
2023-02-22T19:43:56.224Z,45597.00
2023-02-22T19:49:02.134Z,45608.97
2023-02-22T19:54:13.046Z,45587.00
2023-02-22T19:59:21.456Z,45581.03
2023-02-22T20:04:30.769Z,45601.00
2023-02-22T20:09:39.814Z,45606.97
2023-02-22T20:14:44.371Z,45610.97
2023-02-22T20:19:50.652Z,45602.97
2023-02-22T20:24:56.767Z,45593.00
2023-02-22T20:30:01.081Z,45604.97
2023-02-22T20:35:05.924Z,45599.00
2023-02-22T20:40:12.320Z,45608.97
2023-02-22T20:45:20.103Z,45585.00
2023-02-22T20:50:24.225Z,45593.00
2023-02-22T20:55:30.647Z,45583.00
2023-02-22T21:00:35.974Z,45579.03
2023-02-22T21:05:44.233Z,45565.03
2023-02-22T21:10:50.543Z,45571.03
2023-02-22T21:15:55.045Z,45571.03
2023-02-22T21:21:03.417Z,45563.06
2023-02-22T21:26:15.795Z,45557.06
2023-02-22T21:31:22.255Z,45535.09
2023-02-22T21:36:28.088Z,45495.16
2023-02-22T21:41:34.191Z,45493.16
2023-02-22T21:46:39.274Z,45445.25
2023-02-22T21:51:44.880Z,45463.22
2023-02-22T21:56:50.994Z,45451.22
2023-02-22T22:01:56.781Z,45425.28
2023-02-22T22:07:04.012Z,45429.28
2023-02-22T22:12:11.880Z,45399.31
2023-02-22T22:17:16.109Z,45391.34
2023-02-22T22:22:20.627Z,45353.41
2023-02-22T22:27:26.183Z,45343.41
2023-02-22T22:32:30.986Z,45321.44
2023-02-22T22:37:35.215Z,45273.53
2023-02-22T22:42:40.910Z,45279.53
2023-02-22T22:47:46.949Z,45209.66
2023-02-22T22:52:51.064Z,45183.69
2023-02-22T22:57:56.719Z,45133.78
2023-02-22T23:03:05.704Z,45059.91
2023-02-22T23:08:13.026Z,44958.09
2023-02-22T23:13:20.298Z,44900.19
2023-02-22T23:18:24.489Z,44806.38
2023-02-22T23:23:29.450Z,44622.72
2023-02-22T23:28:35.234Z,44475.00
2023-02-22T23:33:39.610Z,44247.44
2023-02-22T23:38:44.450Z,44105.72
2023-02-22T23:43:51.926Z,44025.88
2023-02-22T23:49:01.779Z,43946.03
2023-02-22T23:54:08.109Z,43874.19
2023-02-22T23:59:14.564Z,43786.38
